Time;durP1;ratioP1;P1;durP2;ratioP2;P2;SDS_P1;SDS_P2;PMS_P1;PMS_P2;Temp;Humidity;BMP_temperature;BMP_pressure;BME280_temperature;BME280_humidity;BME280_pressure;Samples;Min_cycle;Max_cycle;Signal;HPM_P1;HPM_P2
2021/03/26 00:01:25;;;;;;;15.35;5.75;;;9.10;94.80;;;;;;5002088;28;20037;-74
2021/03/26 00:03:54;;;;;;;14.60;6.32;;;9.10;95.20;;;;;;5003446;28;20124;-75
2021/03/26 00:06:24;;;;;;;16.30;5.82;;;9.20;95.10;;;;;;4997282;28;20065;-75
2021/03/26 00:08:50;;;;;;;14.07;6.30;;;9.20;95.10;;;;;;4977676;28;20065;-76
2021/03/26 00:11:17;;;;;;;18.17;6.90;;;9.20;95.20;;;;;;4998480;28;20459;-76
2021/03/26 00:13:43;;;;;;;15.23;7.30;;;9.30;95.00;;;;;;5001874;28;20609;-74
2021/03/26 00:16:10;;;;;;;19.23;7.93;;;9.30;94.60;;;;;;5004782;28;20037;-75
2021/03/26 00:18:37;;;;;;;24.48;9.60;;;9.40;94.70;;;;;;5001310;28;20477;-74
2021/03/26 00:21:03;;;;;;;20.75;8.40;;;9.40;94.70;;;;;;4998930;28;20030;-76
2021/03/26 00:23:29;;;;;;;25.25;8.82;;;9.50;93.90;;;;;;5002891;28;20049;-76
2021/03/26 00:25:55;;;;;;;15.77;7.55;;;9.50;94.00;;;;;;4999322;28;20503;-74
2021/03/26 00:28:20;;;;;;;16.67;7.72;;;9.50;93.90;;;;;;4996761;28;20128;-74
2021/03/26 00:30:46;;;;;;;17.67;6.90;;;9.50;94.10;;;;;;4983115;28;20125;-74
2021/03/26 00:33:12;;;;;;;18.00;7.40;;;9.50;94.10;;;;;;4997651;28;20033;-74
2021/03/26 00:35:39;;;;;;;20.52;7.10;;;9.50;94.10;;;;;;4997085;28;20090;-75
2021/03/26 00:38:06;;;;;;;19.23;6.85;;;9.40;94.50;;;;;;5003033;28;20037;-75
2021/03/26 00:40:32;;;;;;;16.13;6.45;;;9.30;95.00;;;;;;4981085;28;20590;-74
2021/03/26 00:42:57;;;;;;;19.17;7.43;;;9.30;94.90;;;;;;5001779;28;20108;-75
2021/03/26 00:45:30;;;;;;;22.75;8.13;;;9.20;94.80;;;;;;4995997;28;20102;-76
2021/03/26 00:47:56;;;;;;;14.75;6.60;;;9.10;95.30;;;;;;5002704;28;20023;-74
2021/03/26 00:50:25;;;;;;;17.80;6.65;;;9.00;95.20;;;;;;4974197;28;20035;-75
2021/03/26 00:52:50;;;;;;;14.40;6.65;;;8.90;95.70;;;;;;4995224;28;20030;-74
2021/03/26 00:55:18;;;;;;;14.35;6.22;;;8.80;96.30;;;;;;4998714;28;20028;-75
2021/03/26 00:57:43;;;;;;;14.52;7.57;;;8.70;96.40;;;;;;4997924;28;20055;-75
2021/03/26 01:00:15;;;;;;;12.57;6.50;;;8.60;96.60;;;;;;4971255;28;20325;-74
2021/03/26 01:02:40;;;;;;;13.68;6.47;;;8.60;97.60;;;;;;4996568;28;20540;-75
2021/03/26 01:05:11;;;;;;;15.30;7.03;;;8.50;98.40;;;;;;4996536;28;20022;-75
2021/03/26 01:07:37;;;;;;;15.20;6.43;;;8.40;99.60;;;;;;4977216;28;20053;-73
2021/03/26 01:10:07;;;;;;;19.63;6.78;;;8.40;99.90;;;;;;5001699;28;20037;-75
2021/03/26 01:12:33;;;;;;;23.40;7.30;;;8.20;99.90;;;;;;5001739;28;20584;-74
2021/03/26 01:14:58;;;;;;;13.93;6.57;;;8.20;99.90;;;;;;4997903;28;20121;-74
2021/03/26 01:17:24;;;;;;;20.73;7.05;;;8.10;99.90;;;;;;4978365;28;20070;-74
2021/03/26 01:19:50;;;;;;;19.50;7.00;;;8.00;99.90;;;;;;4997476;28;20109;-74
2021/03/26 01:22:16;;;;;;;15.27;7.22;;;8.00;99.90;;;;;;5001359;28;20033;-74
2021/03/26 01:24:41;;;;;;;17.08;6.65;;;8.00;99.90;;;;;;5003413;28;20018;-74
2021/03/26 01:27:07;;;;;;;19.42;7.43;;;7.90;99.90;;;;;;5000534;28;20709;-75
2021/03/26 01:29:33;;;;;;;18.67;7.03;;;7.90;99.90;;;;;;5000843;28;20080;-75
2021/03/26 01:31:59;;;;;;;18.00;6.47;;;7.90;99.90;;;;;;4998724;28;20033;-75
2021/03/26 01:34:25;;;;;;;17.95;8.40;;;7.80;99.90;;;;;;4999815;28;20045;-75
2021/03/26 01:36:51;;;;;;;17.80;7.25;;;7.80;99.90;;;;;;4997309;28;20037;-74
2021/03/26 01:39:17;;;;;;;15.75;7.38;;;7.80;99.90;;;;;;4973781;28;20046;-75
2021/03/26 01:41:45;;;;;;;18.90;7.53;;;7.80;99.90;;;;;;4998186;28;20368;-73
2021/03/26 01:44:13;;;;;;;17.30;6.80;;;7.80;99.90;;;;;;5001173;28;20520;-74
2021/03/26 01:46:40;;;;;;;13.43;6.97;;;7.80;99.90;;;;;;4999075;28;20034;-75
2021/03/26 01:49:07;;;;;;;18.27;6.72;;;7.80;99.90;;;;;;5000178;28;20054;-73
2021/03/26 01:51:36;;;;;;;16.27;6.68;;;7.90;99.90;;;;;;4998446;28;20022;-73
2021/03/26 01:54:05;;;;;;;17.33;6.95;;;7.80;99.90;;;;;;4974783;28;20042;-75
2021/03/26 01:56:31;;;;;;;13.88;6.43;;;7.90;99.90;;;;;;4995307;28;20503;-73
2021/03/26 01:58:57;;;;;;;13.15;6.10;;;7.90;99.90;;;;;;4993165;28;20038;-75
2021/03/26 02:01:27;;;;;;;17.58;7.22;;;7.80;99.90;;;;;;4993631;28;20045;-73
2021/03/26 02:03:57;;;;;;;14.05;7.10;;;7.80;99.90;;;;;;4976100;28;20092;-73
2021/03/26 02:06:28;;;;;;;18.20;6.65;;;7.80;99.90;;;;;;4997727;28;20036;-72
2021/03/26 02:09:19;;;;;;;18.92;6.47;;;7.70;99.90;;;;;;4996678;28;20133;-75
2021/03/26 02:11:58;;;;;;;15.05;6.70;;;7.70;99.90;;;;;;4996365;28;20069;-74
2021/03/26 02:14:31;;;;;;;18.40;8.20;;;7.70;99.90;;;;;;4971014;28;20045;-75
2021/03/26 02:16:57;;;;;;;15.45;7.10;;;7.70;99.90;;;;;;5003674;28;20025;-75
2021/03/26 02:19:54;;;;;;;21.15;7.10;;;7.80;99.90;;;;;;4996385;28;20093;-76
2021/03/26 02:22:22;;;;;;;14.23;6.82;;;7.80;99.90;;;;;;4993843;28;20428;-75
2021/03/26 02:24:50;;;;;;;21.90;7.32;;;7.80;99.90;;;;;;4997920;28;20112;-75
2021/03/26 02:27:37;;;;;;;17.85;7.00;;;7.90;99.90;;;;;;4968505;28;20069;-75
2021/03/26 02:30:21;;;;;;;16.55;7.82;;;7.80;99.90;;;;;;4973605;28;20038;-75
2021/03/26 02:32:50;;;;;;;18.00;7.35;;;7.90;99.90;;;;;;4998087;28;20026;-75
2021/03/26 02:35:24;;;;;;;19.20;6.88;;;7.90;99.90;;;;;;4967598;28;20030;-75
2021/03/26 02:37:51;;;;;;;18.77;7.57;;;7.90;99.90;;;;;;4949147;28;20102;-76
2021/03/26 02:40:26;;;;;;;21.42;7.22;;;7.90;99.90;;;;;;4969316;28;20038;-74
2021/03/26 02:43:00;;;;;;;15.50;6.95;;;7.90;99.90;;;;;;4944564;28;20062;-74
2021/03/26 02:45:33;;;;;;;15.15;6.88;;;7.90;99.90;;;;;;4999262;28;20047;-74
2021/03/26 02:48:05;;;;;;;20.98;7.43;;;7.90;99.90;;;;;;4969745;28;20116;-76
2021/03/26 02:50:56;;;;;;;12.38;6.78;;;7.80;99.90;;;;;;4965301;28;20037;-74
2021/03/26 02:53:48;;;;;;;18.73;7.05;;;7.70;99.90;;;;;;4973376;28;20037;-75
2021/03/26 02:56:36;;;;;;;12.80;6.63;;;7.70;99.90;;;;;;4996116;28;20565;-76
2021/03/26 02:59:13;;;;;;;18.42;6.63;;;7.70;99.90;;;;;;5001353;28;20031;-75
2021/03/26 03:01:51;;;;;;;17.25;7.22;;;7.60;99.90;;;;;;4996271;28;20619;-75
2021/03/26 03:04:31;;;;;;;15.23;7.20;;;7.60;99.90;;;;;;4973802;28;20135;-75
2021/03/26 03:07:03;;;;;;;19.42;7.75;;;7.60;99.90;;;;;;4996481;28;20106;-75
2021/03/26 03:09:32;;;;;;;16.73;7.65;;;7.50;99.90;;;;;;4998977;28;20033;-73
2021/03/26 03:12:00;;;;;;;16.20;7.88;;;7.50;99.90;;;;;;4997531;28;20464;-74
2021/03/26 03:14:58;;;;;;;17.60;7.30;;;7.50;99.90;;;;;;4996835;28;20069;-74
2021/03/26 03:18:09;;;;;;;16.92;8.75;;;7.40;99.90;;;;;;4992946;28;20038;-74
2021/03/26 03:21:06;;;;;;;20.83;8.02;;;7.40;99.90;;;;;;4973545;28;22517;-74
2021/03/26 03:23:51;;;;;;;23.38;9.38;;;7.40;99.90;;;;;;4996836;28;20061;-74
2021/03/26 03:26:26;;;;;;;17.30;8.02;;;7.30;99.90;;;;;;4998145;28;20041;-75
2021/03/26 03:29:32;;;;;;;18.10;8.13;;;7.20;99.90;;;;;;4969489;28;20373;-74
2021/03/26 03:32:18;;;;;;;16.65;8.70;;;7.10;99.90;;;;;;4971606;28;20109;-74
2021/03/26 03:34:51;;;;;;;16.42;7.35;;;7.00;99.90;;;;;;4974451;28;20056;-73
2021/03/26 03:37:40;;;;;;;20.77;8.87;;;6.90;99.90;;;;;;4972399;28;20450;-75
2021/03/26 03:40:11;;;;;;;21.25;7.25;;;6.90;99.90;;;;;;4944097;28;20054;-74
2021/03/26 03:42:55;;;;;;;24.10;8.77;;;6.90;99.90;;;;;;4952281;28;20037;-74
2021/03/26 03:45:32;;;;;;;20.90;8.43;;;6.90;99.90;;;;;;4980443;28;20034;-74
2021/03/26 03:48:09;;;;;;;19.23;7.90;;;6.80;99.90;;;;;;4994212;28;20037;-74
2021/03/26 03:50:38;;;;;;;21.88;8.95;;;6.80;99.90;;;;;;4994621;28;20038;-74
2021/03/26 03:53:15;;;;;;;16.55;8.70;;;6.70;99.90;;;;;;4992498;28;20142;-74
2021/03/26 03:56:08;;;;;;;18.38;9.15;;;6.70;99.90;;;;;;4988789;28;20038;-74
2021/03/26 03:58:42;;;;;;;22.67;7.82;;;6.70;99.90;;;;;;4989514;28;20042;-74
2021/03/26 04:01:35;;;;;;;18.58;7.47;;;6.70;99.90;;;;;;4989684;28;20046;-75
2021/03/26 04:04:11;;;;;;;21.60;8.10;;;6.70;99.90;;;;;;4993673;28;20081;-74
2021/03/26 04:06:49;;;;;;;22.98;8.93;;;6.70;99.90;;;;;;4991277;28;20053;-74
2021/03/26 04:09:19;;;;;;;25.33;8.05;;;6.70;99.90;;;;;;4992950;28;20035;-74
2021/03/26 04:11:58;;;;;;;22.25;8.30;;;6.80;99.90;;;;;;4991153;28;20519;-74
2021/03/26 04:14:27;;;;;;;19.38;9.25;;;6.80;99.90;;;;;;4992939;28;20599;-74
2021/03/26 04:17:03;;;;;;;24.80;9.18;;;6.80;99.90;;;;;;4993568;28;20034;-74
2021/03/26 04:19:38;;;;;;;24.83;9.25;;;6.90;99.90;;;;;;4992011;28;20038;-75
2021/03/26 04:22:15;;;;;;;27.50;9.93;;;6.90;99.90;;;;;;5000161;28;20034;-74
2021/03/26 04:24:49;;;;;;;22.52;9.98;;;6.90;99.90;;;;;;4996410;28;20396;-74
2021/03/26 04:27:22;;;;;;;25.83;10.23;;;7.00;99.90;;;;;;4990633;28;20034;-75
2021/03/26 04:30:18;;;;;;;22.55;9.20;;;7.00;99.90;;;;;;4994230;28;20034;-76
2021/03/26 04:32:45;;;;;;;20.00;8.60;;;7.00;99.90;;;;;;4991687;28;20038;-74
2021/03/26 04:35:13;;;;;;;28.50;10.38;;;7.00;99.90;;;;;;4989478;28;20042;-74
2021/03/26 04:38:22;;;;;;;25.80;10.32;;;7.00;99.90;;;;;;4989003;28;20042;-76
2021/03/26 04:40:51;;;;;;;21.85;9.57;;;7.00;99.90;;;;;;4993406;28;20531;-73
2021/03/26 04:43:27;;;;;;;28.13;11.27;;;7.10;99.90;;;;;;4989242;28;20041;-75
2021/03/26 04:46:16;;;;;;;22.05;9.90;;;7.10;99.90;;;;;;4990911;28;20145;-75
2021/03/26 04:49:05;;;;;;;21.38;10.77;;;7.10;99.90;;;;;;4987812;28;20053;-74
2021/03/26 04:51:47;;;;;;;29.08;10.30;;;7.10;99.90;;;;;;4988318;28;20125;-76
2021/03/26 04:54:45;;;;;;;24.92;10.20;;;7.20;99.90;;;;;;4990231;28;20038;-74
2021/03/26 04:57:18;;;;;;;26.98;11.50;;;7.20;99.90;;;;;;4991512;28;20058;-75
2021/03/26 04:59:56;;;;;;;34.00;13.35;;;7.30;99.90;;;;;;4989561;28;20070;-73
2021/03/26 05:02:23;;;;;;;40.13;12.75;;;7.40;99.90;;;;;;4988291;28;20222;-74
2021/03/26 05:04:53;;;;;;;29.85;13.18;;;7.40;99.90;;;;;;4987951;28;20027;-74
2021/03/26 05:07:31;;;;;;;27.85;12.60;;;7.40;99.90;;;;;;4988580;28;20954;-74
2021/03/26 05:10:00;;;;;;;28.05;12.55;;;7.40;99.90;;;;;;4991592;28;20034;-75
2021/03/26 05:12:33;;;;;;;35.08;13.40;;;7.40;99.90;;;;;;4989491;28;20037;-74
2021/03/26 05:15:06;;;;;;;41.97;12.70;;;7.40;99.90;;;;;;4987936;28;20038;-75
2021/03/26 05:18:06;;;;;;;33.47;12.88;;;7.30;99.90;;;;;;4989411;28;20061;-74
2021/03/26 05:20:55;;;;;;;29.30;12.95;;;7.30;99.90;;;;;;4989274;28;20045;-74
2021/03/26 05:23:27;;;;;;;29.92;12.10;;;7.20;99.90;;;;;;4988172;28;20038;-74
2021/03/26 05:25:58;;;;;;;27.42;13.25;;;7.20;99.90;;;;;;4989102;28;20129;-75
2021/03/26 05:28:30;;;;;;;29.27;12.90;;;7.20;99.90;;;;;;4988718;28;20407;-74
2021/03/26 05:31:07;;;;;;;32.28;12.48;;;7.10;99.90;;;;;;4988054;28;20398;-74
2021/03/26 05:33:45;;;;;;;32.97;13.20;;;7.00;99.90;;;;;;4987805;28;20030;-75
2021/03/26 05:36:29;;;;;;;25.27;12.25;;;7.00;99.90;;;;;;4990681;28;20667;-75
2021/03/26 05:39:00;;;;;;;31.25;13.55;;;7.00;99.90;;;;;;4987474;28;20388;-74
2021/03/26 05:42:07;;;;;;;34.63;12.60;;;7.00;99.90;;;;;;4986956;28;20446;-74
2021/03/26 05:44:59;;;;;;;40.88;14.00;;;7.00;99.90;;;;;;5004531;28;20030;-75
2021/03/26 05:47:52;;;;;;;28.05;13.07;;;7.00;99.90;;;;;;4986923;28;20042;-75
2021/03/26 05:50:30;;;;;;;33.50;12.15;;;7.00;99.90;;;;;;4989759;28;20518;-74
2021/03/26 05:53:14;;;;;;;31.73;13.00;;;7.10;99.90;;;;;;4987505;28;20039;-74
2021/03/26 05:56:25;;;;;;;41.85;13.00;;;7.10;99.90;;;;;;4985889;28;20256;-73
2021/03/26 05:59:03;;;;;;;32.08;13.27;;;7.10;99.90;;;;;;4996482;28;20561;-74
2021/03/26 06:01:59;;;;;;;28.83;14.15;;;7.20;99.90;;;;;;4992760;28;20042;-74
2021/03/26 06:04:32;;;;;;;30.88;12.88;;;7.30;99.90;;;;;;4988801;28;20042;-75
2021/03/26 06:07:13;;;;;;;25.63;13.30;;;7.40;99.90;;;;;;4987007;28;20122;-77
2021/03/26 06:09:58;;;;;;;28.42;14.00;;;7.50;99.90;;;;;;4987044;28;20069;-74
2021/03/26 06:12:38;;;;;;;32.92;12.93;;;7.60;99.90;;;;;;4988658;28;20400;-75
2021/03/26 06:15:31;;;;;;;30.67;13.75;;;7.80;99.90;;;;;;4990322;28;20027;-75
2021/03/26 06:18:23;;;;;;;28.52;13.23;;;8.00;99.90;;;;;;4987390;28;20519;-74
2021/03/26 06:21:23;;;;;;;30.73;13.85;;;8.20;99.90;;;;;;4987612;28;20160;-74
2021/03/26 06:24:01;;;;;;;28.73;12.07;;;8.40;99.90;;;;;;4990224;28;20699;-74
2021/03/26 06:26:55;;;;;;;29.27;12.65;;;8.60;99.90;;;;;;4985765;28;20042;-74
2021/03/26 06:29:41;;;;;;;26.73;13.03;;;8.70;99.90;;;;;;4986755;28;20038;-75
2021/03/26 06:32:40;;;;;;;34.67;12.75;;;8.80;99.90;;;;;;4987253;28;20541;-75
2021/03/26 06:35:30;;;;;;;31.85;12.52;;;9.00;99.90;;;;;;4989321;28;20034;-75
2021/03/26 06:38:34;;;;;;;34.38;13.07;;;9.10;99.90;;;;;;4986551;28;20034;-76
2021/03/26 06:41:12;;;;;;;44.58;14.40;;;9.20;99.90;;;;;;4986054;28;20543;-75
2021/03/26 06:43:49;;;;;;;32.03;13.82;;;9.20;99.90;;;;;;4987136;28;20048;-74
2021/03/26 06:46:30;;;;;;;28.98;12.82;;;9.10;99.90;;;;;;4987493;28;20166;-75
2021/03/26 06:49:07;;;;;;;35.38;12.80;;;9.10;99.90;;;;;;4997752;28;20064;-76
2021/03/26 06:51:55;;;;;;;29.77;13.13;;;9.10;99.90;;;;;;4997979;28;20068;-75
2021/03/26 06:54:57;;;;;;;28.98;12.88;;;9.30;99.90;;;;;;4974023;28;20041;-76
2021/03/26 06:57:49;;;;;;;35.10;13.02;;;9.50;99.90;;;;;;4983573;28;20062;-76
2021/03/26 07:00:27;;;;;;;32.97;13.80;;;9.50;99.90;;;;;;4967770;28;20045;-77
2021/03/26 07:03:19;;;;;;;36.63;12.88;;;9.60;99.90;;;;;;4987516;28;20073;-75
2021/03/26 07:06:28;;;;;;;38.92;12.50;;;9.70;99.80;;;;;;4989080;28;20033;-76
2021/03/26 07:09:31;;;;;;;31.85;11.88;;;9.90;98.90;;;;;;4990167;28;20042;-75
2021/03/26 07:12:15;;;;;;;35.40;13.75;;;10.10;96.50;;;;;;4990083;28;21767;-75
2021/03/26 07:14:59;;;;;;;27.08;12.25;;;10.50;95.10;;;;;;4988703;28;20407;-75
2021/03/26 07:17:59;;;;;;;28.85;12.25;;;10.60;92.90;;;;;;4990519;28;20707;-75
2021/03/26 07:20:46;;;;;;;41.63;12.82;;;10.70;91.80;;;;;;4995255;28;20125;-74
2021/03/26 07:23:34;;;;;;;41.78;12.57;;;11.40;90.00;;;;;;4993329;28;20022;-75
2021/03/26 07:26:12;;;;;;;35.78;13.18;;;11.80;84.90;;;;;;4998097;28;20030;-75
2021/03/26 07:29:00;;;;;;;33.03;12.35;;;11.70;82.00;;;;;;4985771;28;20035;-75
2021/03/26 07:31:44;;;;;;;27.48;11.02;;;11.60;83.00;;;;;;4984637;28;20081;-76
2021/03/26 07:34:37;;;;;;;27.77;11.27;;;11.80;81.40;;;;;;4980541;28;20038;-76
2021/03/26 07:37:19;;;;;;;22.52;10.25;;;11.70;81.00;;;;;;4995642;28;20053;-75
2021/03/26 07:39:59;;;;;;;35.78;10.93;;;11.70;80.90;;;;;;5006824;28;20049;-76
2021/03/26 07:42:56;;;;;;;27.33;11.65;;;11.90;80.50;;;;;;4992012;28;20038;-75
2021/03/26 07:45:48;;;;;;;35.00;10.80;;;12.10;79.70;;;;;;4992072;28;20037;-76
2021/03/26 07:48:47;;;;;;;23.75;10.82;;;12.20;78.10;;;;;;4991198;28;20034;-76
2021/03/26 07:51:36;;;;;;;32.00;11.52;;;12.10;77.60;;;;;;4995776;28;20153;-76
2021/03/26 07:54:24;;;;;;;25.80;10.38;;;12.60;75.30;;;;;;4994506;28;20045;-77
2021/03/26 07:57:09;;;;;;;27.75;12.55;;;13.20;72.70;;;;;;4993389;28;20060;-75
2021/03/26 07:59:59;;;;;;;31.88;12.00;;;13.40;70.50;;;;;;4990416;28;20042;-77
2021/03/26 08:02:39;;;;;;;33.83;12.07;;;13.30;69.10;;;;;;5004231;28;20034;-76
2021/03/26 08:05:23;;;;;;;32.35;12.30;;;13.50;69.50;;;;;;4974539;28;20103;-76
2021/03/26 08:08:19;;;;;;;27.17;11.32;;;13.20;69.10;;;;;;4994153;28;20097;-76
2021/03/26 08:11:13;;;;;;;22.67;10.95;;;13.10;69.30;;;;;;5008463;28;20041;-77
2021/03/26 08:14:00;;;;;;;26.33;11.25;;;13.50;69.30;;;;;;4996409;28;20092;-76
2021/03/26 08:16:35;;;;;;;24.38;11.95;;;14.00;67.10;;;;;;5000565;28;20330;-76
2021/03/26 08:19:15;;;;;;;;;;;15.00;65.00;;;;;;4997700;28;20062;-77
2021/03/26 08:21:52;;;;;;;25.33;11.18;;;15.20;61.50;;;;;;4991141;28;20298;-78
2021/03/26 08:24:17;;;;;;;28.75;13.30;;;15.50;60.60;;;;;;4998272;28;20057;-77
2021/03/26 08:27:20;;;;;;;32.28;11.93;;;15.70;58.60;;;;;;4993319;28;20034;-77
2021/03/26 08:30:24;;;;;;;27.77;11.27;;;15.30;58.20;;;;;;5003505;28;20053;-77
2021/03/26 08:33:16;;;;;;;22.80;11.30;;;15.80;57.60;;;;;;5007884;28;20042;-78
2021/03/26 08:36:23;;;;;;;24.45;10.38;;;15.70;55.00;;;;;;4994884;28;20034;-77
2021/03/26 08:39:36;;;;;;;25.55;10.85;;;15.60;55.70;;;;;;5002659;28;20044;-77
2021/03/26 08:42:18;;;;;;;33.90;11.52;;;15.60;56.40;;;;;;4961074;28;20039;-77
2021/03/26 08:44:56;;;;;;;34.70;12.02;;;15.40;55.10;;;;;;4954196;28;20043;-76
2021/03/26 08:47:30;;;;;;;30.85;12.00;;;15.80;55.50;;;;;;4984071;28;20885;-76
2021/03/26 08:50:19;;;;;;;;;;;16.20;53.90;;;;;;4993447;28;20049;-76
2021/03/26 08:52:48;;;;;;;30.13;10.93;;;16.40;51.50;;;;;;5000567;28;19928;-77
2021/03/26 08:55:40;;;;;;;31.83;11.60;;;16.70;51.30;;;;;;4995097;28;20049;-76
2021/03/26 08:58:21;;;;;;;29.05;11.88;;;16.90;50.80;;;;;;4993184;28;20488;-77
2021/03/26 09:01:14;;;;;;;31.73;11.27;;;16.70;48.30;;;;;;4991578;28;20039;-77
2021/03/26 09:04:12;;;;;;;28.65;11.90;;;17.10;47.50;;;;;;4992504;28;20519;-76
2021/03/26 09:07:00;;;;;;;25.15;11.27;;;17.10;47.30;;;;;;4993941;28;20535;-76
2021/03/26 09:10:20;;;;;;;28.08;9.75;;;17.60;46.80;;;;;;4990168;28;20073;-75
2021/03/26 09:13:18;;;;;;;31.10;10.60;;;17.70;43.80;;;;;;5000486;28;20823;-76
2021/03/26 09:16:04;;;;;;;26.25;10.45;;;17.80;43.20;;;;;;4988119;28;20198;-76
2021/03/26 09:18:49;;;;;;;35.70;10.35;;;18.80;40.30;;;;;;4997285;28;20146;-74
2021/03/26 09:21:44;;;;;;;24.25;10.02;;;19.40;36.10;;;;;;4989879;28;20056;-76
2021/03/26 09:24:28;;;;;;;;;;;20.30;34.50;;;;;;4992216;28;20061;-77
2021/03/26 09:27:03;;;;;;;23.67;10.65;;;20.40;30.00;;;;;;4989339;28;20373;-74
2021/03/26 09:29:32;;;;;;;20.67;10.18;;;20.30;30.60;;;;;;4991768;28;20173;-75
2021/03/26 09:32:13;;;;;;;24.33;10.77;;;20.50;30.40;;;;;;4965052;28;20043;-76
2021/03/26 09:34:44;;;;;;;27.08;10.63;;;21.20;30.10;;;;;;4988259;28;20162;-74
2021/03/26 09:37:50;;;;;;;29.17;11.10;;;21.00;29.20;;;;;;4994453;28;20038;-77
2021/03/26 09:40:34;;;;;;;21.30;10.05;;;21.60;27.90;;;;;;4960118;28;20046;-76
2021/03/26 09:43:13;;;;;;;26.08;11.13;;;21.50;28.10;;;;;;5014706;28;20030;-75
2021/03/26 09:45:48;;;;;;;32.35;10.55;;;22.40;26.80;;;;;;4994845;28;20455;-76
2021/03/26 09:48:51;;;;;;;24.05;10.27;;;21.90;25.90;;;;;;4990422;28;20438;-76
2021/03/26 09:51:53;;;;;;;24.15;10.63;;;22.00;24.40;;;;;;4993552;28;20499;-77
2021/03/26 09:54:39;;;;;;;30.88;10.57;;;22.20;23.80;;;;;;4995199;28;20045;-76
2021/03/26 09:57:29;;;;;;;18.70;9.20;;;22.40;23.00;;;;;;4991771;28;20057;-75
2021/03/26 10:00:20;;;;;;;26.88;10.27;;;22.80;22.40;;;;;;4987281;28;20681;-74
2021/03/26 10:03:08;;;;;;;25.10;10.13;;;23.20;22.00;;;;;;4990624;28;20746;-76
2021/03/26 10:05:49;;;;;;;21.80;8.93;;;22.90;21.90;;;;;;4987247;28;20442;-76
2021/03/26 10:11:29;;;;;;;17.63;9.40;;;23.30;21.10;;;;;;4989491;28;20065;-75
2021/03/26 10:14:12;;;;;;;29.42;9.25;;;23.70;20.80;;;;;;4998384;28;20469;-76
2021/03/26 10:16:49;;;;;;;20.08;9.00;;;24.10;20.20;;;;;;4996367;28;20045;-76
2021/03/26 10:19:22;;;;;;;17.55;8.25;;;24.10;20.40;;;;;;4989982;28;20034;-76
2021/03/26 10:21:54;;;;;;;22.45;9.07;;;22.80;20.70;;;;;;4990577;28;20039;-77
2021/03/26 10:24:34;;;;;;;24.23;8.40;;;22.10;21.10;;;;;;4996164;28;20105;-76
2021/03/26 10:27:29;;;;;;;16.73;8.20;;;23.10;21.30;;;;;;4992522;28;20034;-77
2021/03/26 10:30:03;;;;;;;18.90;8.40;;;22.30;21.20;;;;;;4990998;28;20038;-77
2021/03/26 10:32:32;;;;;;;21.55;8.70;;;24.10;20.70;;;;;;4988436;28;20442;-77
2021/03/26 10:35:09;;;;;;;11.48;7.68;;;23.60;19.90;;;;;;4988047;28;20034;-76
2021/03/26 10:37:53;;;;;;;20.13;7.10;;;22.90;19.90;;;;;;4987615;28;20042;-76
2021/03/26 10:40:19;;;;;;;17.40;7.43;;;21.90;21.80;;;;;;4986579;28;20529;-75
2021/03/26 10:42:52;;;;;;;15.10;7.18;;;22.00;22.10;;;;;;4988110;28;20062;-76
2021/03/26 10:45:37;;;;;;;18.42;7.32;;;23.30;21.50;;;;;;4990415;28;20042;-75
2021/03/26 10:48:27;;;;;;;23.40;7.30;;;21.30;20.30;;;;;;4991603;28;20034;-76
2021/03/26 10:51:13;;;;;;;14.80;7.45;;;22.10;20.90;;;;;;4990347;28;20035;-75
2021/03/26 10:53:44;;;;;;;15.73;7.28;;;22.50;20.80;;;;;;4985399;28;20120;-76
2021/03/26 10:56:37;;;;;;;12.73;6.15;;;24.50;18.70;;;;;;4986277;28;20128;-76
2021/03/26 10:59:15;;;;;;;15.52;5.68;;;24.40;17.00;;;;;;4988082;28;20026;-76
2021/03/26 11:01:43;;;;;;;12.57;5.38;;;23.80;17.70;;;;;;4987424;28;20080;-75
2021/03/26 11:04:08;;;;;;;13.00;5.68;;;21.50;18.80;;;;;;4984062;28;20046;-75
2021/03/26 11:06:57;;;;;;;13.40;5.38;;;22.70;19.70;;;;;;4988787;28;20118;-76
2021/03/26 11:09:29;;;;;;;11.13;5.45;;;22.90;17.40;;;;;;4988172;28;20197;-74
2021/03/26 11:12:06;;;;;;;11.27;5.03;;;22.10;18.60;;;;;;4988371;28;20061;-74
2021/03/26 11:14:48;;;;;;;15.13;5.45;;;21.40;18.50;;;;;;4992278;28;20120;-74
2021/03/26 11:17:28;;;;;;;15.73;5.75;;;22.50;19.50;;;;;;4991442;28;20159;-74
2021/03/26 11:20:08;;;;;;;16.67;6.15;;;23.00;19.60;;;;;;4992913;28;20045;-74
2021/03/26 11:22:37;;;;;;;20.67;5.80;;;22.90;17.70;;;;;;4992719;28;20838;-74
2021/03/26 11:25:07;;;;;;;11.82;5.55;;;21.30;18.20;;;;;;4992974;28;20101;-75
2021/03/26 11:27:42;;;;;;;13.60;6.10;;;22.90;18.50;;;;;;4992032;28;20495;-74
2021/03/26 11:30:20;;;;;;;11.00;4.88;;;22.90;17.00;;;;;;4990963;28;20502;-75
2021/03/26 11:33:07;;;;;;;14.57;5.15;;;22.60;18.20;;;;;;5002831;28;20045;-74
2021/03/26 11:35:38;;;;;;;13.90;5.80;;;21.20;19.60;;;;;;5010021;28;20042;-75
2021/03/26 11:38:26;;;;;;;10.30;5.28;;;22.20;19.40;;;;;;4994246;28;20045;-76
2021/03/26 11:41:05;;;;;;;14.23;5.15;;;23.10;17.70;;;;;;5002235;28;20033;-75
2021/03/26 11:43:35;;;;;;;15.82;5.60;;;23.80;18.10;;;;;;4992089;28;20127;-75
2021/03/26 11:46:05;;;;;;;13.00;4.78;;;23.20;16.00;;;;;;4988774;28;20503;-76
2021/03/26 11:48:49;;;;;;;10.32;4.18;;;24.80;16.40;;;;;;4992086;28;20126;-76
2021/03/26 11:51:34;;;;;;;13.00;4.53;;;24.40;15.20;;;;;;4994745;28;20069;-76
2021/03/26 11:54:40;;;;;;;14.35;5.53;;;24.20;15.40;;;;;;4993049;28;20038;-77
2021/03/26 11:57:36;;;;;;;10.65;4.53;;;24.50;16.10;;;;;;4993230;28;20046;-76
2021/03/26 12:00:15;;;;;;;13.02;5.38;;;24.20;15.60;;;;;;4993803;28;20042;-76
2021/03/26 12:03:02;;;;;;;16.45;5.20;;;23.40;15.10;;;;;;4996206;28;20116;-77
2021/03/26 12:06:01;;;;;;;15.63;5.32;;;23.40;15.30;;;;;;4994890;28;20100;-76
2021/03/26 12:08:39;;;;;;;14.23;5.82;;;24.30;16.00;;;;;;4975193;28;20492;-77
2021/03/26 12:11:28;;;;;;;16.90;5.95;;;23.70;15.00;;;;;;4976935;28;20046;-75
2021/03/26 12:14:21;;;;;;;10.20;5.22;;;23.90;15.60;;;;;;5003319;28;20796;-75
2021/03/26 12:17:11;;;;;;;13.63;5.75;;;24.20;14.90;;;;;;4996088;28;20499;-76
2021/03/26 12:19:37;;;;;;;13.38;5.63;;;24.40;16.20;;;;;;4999447;28;20440;-76
2021/03/26 12:22:17;;;;;;;14.57;6.22;;;24.00;15.50;;;;;;4993514;28;20079;-76
2021/03/26 12:25:03;;;;;;;18.70;6.57;;;23.70;16.60;;;;;;4993828;28;20042;-75
2021/03/26 12:27:47;;;;;;;16.10;6.25;;;22.60;17.40;;;;;;4995108;28;20118;-75
2021/03/26 12:30:20;;;;;;;16.58;7.13;;;22.20;18.60;;;;;;4997334;28;20037;-75
2021/03/26 12:33:00;;;;;;;9.45;5.75;;;21.30;19.50;;;;;;4998658;28;20073;-76
2021/03/26 12:35:50;;;;;;;15.40;6.53;;;21.90;18.50;;;;;;4994779;28;20396;-76
2021/03/26 12:38:37;;;;;;;13.65;6.20;;;22.30;18.90;;;;;;4998419;28;20056;-75
2021/03/26 12:41:21;;;;;;;16.30;6.72;;;23.20;17.80;;;;;;4998560;28;20069;-74
2021/03/26 12:43:52;;;;;;;17.13;5.53;;;22.50;18.30;;;;;;4995042;28;20541;-75
2021/03/26 12:46:27;;;;;;;15.35;6.03;;;22.90;18.20;;;;;;4996178;28;20400;-74
2021/03/26 12:48:53;;;;;;;10.85;5.30;;;23.70;18.00;;;;;;4997612;28;20509;-75
2021/03/26 12:51:28;;;;;;;12.82;5.38;;;24.40;16.40;;;;;;4999073;28;20128;-76
2021/03/26 12:54:19;;;;;;;13.10;5.90;;;24.20;16.40;;;;;;4997624;28;20045;-75
2021/03/26 12:57:25;;;;;;;9.95;4.78;;;23.30;16.60;;;;;;4995685;28;20053;-75
2021/03/26 13:00:26;;;;;;;12.63;5.40;;;23.50;17.10;;;;;;5002300;28;20042;-76
2021/03/26 13:03:08;;;;;;;15.65;5.13;;;23.60;17.20;;;;;;5009962;28;20112;-76
2021/03/26 13:05:35;;;;;;;7.70;4.55;;;23.70;16.70;;;;;;4992893;28;20045;-74
2021/03/26 13:08:21;;;;;;;8.48;4.35;;;22.50;16.20;;;;;;5001916;28;20071;-75
2021/03/26 13:10:54;;;;;;;8.80;4.72;;;21.70;18.00;;;;;;5000841;28;20042;-75
2021/03/26 13:13:42;;;;;;;11.67;3.97;;;22.80;18.50;;;;;;4995655;28;20092;-75
2021/03/26 13:16:23;;;;;;;7.93;4.03;;;23.30;16.20;;;;;;4995845;28;20312;-75
2021/03/26 13:18:58;;;;;;;12.35;4.22;;;22.70;16.10;;;;;;5003146;28;20038;-74
2021/03/26 13:21:38;;;;;;;9.00;4.03;;;23.10;16.50;;;;;;4994012;28;20726;-75
2021/03/26 13:24:19;;;;;;;8.70;3.78;;;22.60;16.90;;;;;;4993908;28;20092;-74
2021/03/26 13:26:46;;;;;;;16.63;4.43;;;21.30;17.40;;;;;;4983297;28;20034;-75
2021/03/26 13:29:21;;;;;;;5.90;3.75;;;20.70;18.40;;;;;;4990933;28;20151;-76
2021/03/26 13:31:47;;;;;;;10.45;4.30;;;20.30;18.90;;;;;;4993668;28;20041;-75
2021/03/26 13:34:33;;;;;;;6.30;3.30;;;21.30;18.30;;;;;;4990719;28;20041;-75
2021/03/26 13:37:16;;;;;;;10.13;3.83;;;22.40;16.60;;;;;;4993024;28;20113;-75
2021/03/26 13:39:50;;;;;;;11.50;3.63;;;22.10;16.40;;;;;;4988774;28;20034;-74
2021/03/26 13:42:34;;;;;;;14.73;3.35;;;22.00;16.90;;;;;;4997008;28;20072;-75
2021/03/26 13:45:02;;;;;;;13.48;3.85;;;22.60;16.00;;;;;;4969161;28;20143;-75
2021/03/26 13:47:57;;;;;;;5.00;3.00;;;21.80;16.50;;;;;;4967886;28;20487;-75
2021/03/26 13:50:22;;;;;;;5.35;3.17;;;21.00;17.50;;;;;;4968831;28;20053;-75